createdAt,value
2023-01-23T00:04:30.915Z,11.70
2023-01-23T00:09:52.580Z,13.20
2023-01-23T00:15:15.121Z,12.03
2023-01-23T00:20:39.257Z,12.67
2023-01-23T00:26:25.930Z,11.73
2023-01-23T00:32:03.250Z,11.43
2023-01-23T00:37:44.283Z,11.50
2023-01-23T00:43:19.536Z,10.70
2023-01-23T00:48:55.713Z,10.60
2023-01-23T00:54:20.819Z,11.40
2023-01-23T00:59:42.581Z,11.27
2023-01-23T01:05:25.263Z,11.00
2023-01-23T01:11:06.227Z,12.03
2023-01-23T01:17:11.331Z,12.40
2023-01-23T01:28:37.124Z,12.97
2023-01-23T01:34:06.723Z,12.03
2023-01-23T01:39:29.479Z,12.17
2023-01-23T01:44:57.580Z,12.47
2023-01-23T01:50:19.811Z,12.37
2023-01-23T01:55:41.943Z,11.67
2023-01-23T02:01:03.918Z,12.43
2023-01-23T02:06:26.369Z,13.13
2023-01-23T02:12:02.307Z,13.23
2023-01-23T02:17:46.026Z,12.93
2023-01-23T02:23:35.328Z,13.57
2023-01-23T02:29:04.744Z,13.40
2023-01-23T02:34:35.464Z,13.10
2023-01-23T02:39:56.871Z,12.97
2023-01-23T02:45:18.645Z,13.40
2023-01-23T02:50:42.072Z,12.57
2023-01-23T02:56:30.075Z,13.13
2023-01-23T03:02:11.346Z,13.87
2023-01-23T03:07:33.629Z,13.13
2023-01-23T03:13:04.132Z,14.70
2023-01-23T03:18:48.948Z,12.37
2023-01-23T03:24:21.004Z,12.30
2023-01-23T03:30:00.768Z,13.73
2023-01-23T03:35:23.688Z,13.00
2023-01-23T03:41:25.395Z,12.50
2023-01-23T03:47:14.082Z,12.80
2023-01-23T03:52:55.368Z,13.33
2023-01-23T03:58:22.483Z,12.57
2023-01-23T04:04:02.281Z,13.03
2023-01-23T04:09:28.675Z,12.67
2023-01-23T04:14:51.737Z,13.60
2023-01-23T04:20:14.655Z,12.70
2023-01-23T04:25:38.076Z,12.57
2023-01-23T04:31:21.370Z,13.00
2023-01-23T04:37:03.532Z,13.27
2023-01-23T04:42:56.255Z,12.60
2023-01-23T04:48:39.378Z,13.40
2023-01-23T04:54:17.135Z,13.30
2023-01-23T04:59:39.737Z,12.90
2023-01-23T05:05:20.366Z,13.17
2023-01-23T05:10:56.241Z,12.50
2023-01-23T05:16:26.410Z,12.93
2023-01-23T05:22:24.431Z,13.23
2023-01-23T05:27:59.958Z,12.70
2023-01-23T05:33:36.534Z,12.53
2023-01-23T05:39:08.215Z,12.67
2023-01-23T05:44:32.008Z,12.30
2023-01-23T05:50:05.937Z,11.17
2023-01-23T05:55:30.894Z,12.30
2023-01-23T06:00:53.228Z,12.30
2023-01-23T06:06:51.550Z,12.80
2023-01-23T06:12:29.730Z,12.83
2023-01-23T06:18:02.624Z,12.57
2023-01-23T06:23:42.797Z,11.60
2023-01-23T06:29:17.225Z,12.90
2023-01-23T06:34:39.764Z,12.80
2023-01-23T06:40:01.397Z,13.20
2023-01-23T06:45:28.637Z,12.80
2023-01-23T06:51:10.689Z,11.87
2023-01-23T06:56:50.664Z,12.77
2023-01-23T07:02:59.834Z,12.47
2023-01-23T07:08:31.576Z,12.80
2023-01-23T07:14:02.783Z,12.33
2023-01-23T07:19:26.979Z,12.30
2023-01-23T07:24:49.927Z,12.43
2023-01-23T07:30:12.194Z,12.27
2023-01-23T07:35:33.822Z,12.10
2023-01-23T07:41:03.142Z,12.33
2023-01-23T07:46:34.692Z,11.93
2023-01-23T07:52:18.340Z,13.07
2023-01-23T07:57:58.288Z,12.37
2023-01-23T08:03:34.683Z,12.87
2023-01-23T08:08:59.074Z,13.57
2023-01-23T08:14:21.101Z,12.67
2023-01-23T08:19:42.259Z,12.70
2023-01-23T08:25:03.670Z,12.23
2023-01-23T08:31:26.140Z,13.53
2023-01-23T08:37:04.975Z,14.17
2023-01-23T08:42:38.714Z,13.07
2023-01-23T08:48:07.516Z,13.53
2023-01-23T08:59:16.678Z,13.77
2023-01-23T09:04:53.606Z,13.23
2023-01-23T09:10:16.235Z,13.07
2023-01-23T09:15:41.531Z,12.87
2023-01-23T09:21:32.883Z,13.20
2023-01-23T09:32:57.043Z,13.23
2023-01-23T09:38:32.292Z,12.63
2023-01-23T09:44:40.768Z,12.43
2023-01-23T09:50:09.053Z,14.20
2023-01-23T09:56:20.243Z,13.77
2023-01-23T10:02:14.079Z,13.73
2023-01-23T10:07:50.757Z,13.73
2023-01-23T10:13:56.178Z,13.63
2023-01-23T10:19:43.088Z,14.67
2023-01-23T10:25:22.982Z,13.97
2023-01-23T10:31:13.127Z,14.17
2023-01-23T10:37:13.220Z,15.50
2023-01-23T10:42:54.279Z,14.90
2023-01-23T10:48:37.043Z,13.53
2023-01-23T10:54:30.885Z,14.07
2023-01-23T10:59:56.946Z,15.50
2023-01-23T11:05:52.848Z,15.30
2023-01-23T11:11:29.957Z,14.83
2023-01-23T11:17:32.138Z,15.53
2023-01-23T11:23:45.206Z,16.63
2023-01-23T11:29:29.635Z,16.87
2023-01-23T11:34:57.439Z,15.60
2023-01-23T11:40:20.780Z,15.83
2023-01-23T11:52:39.507Z,16.20
2023-01-23T11:58:49.848Z,15.50
2023-01-23T12:04:54.353Z,15.27
2023-01-23T12:10:27.018Z,15.97
2023-01-23T12:16:40.389Z,16.10
2023-01-23T12:22:10.501Z,15.67
2023-01-23T12:27:58.029Z,15.63
2023-01-23T12:33:52.100Z,17.47
2023-01-23T12:39:38.317Z,17.00
2023-01-23T12:45:05.363Z,16.50
2023-01-23T12:50:40.703Z,16.30
2023-01-23T12:56:28.037Z,16.70
2023-01-23T13:02:29.496Z,16.63
2023-01-23T13:08:01.844Z,15.70
2023-01-23T13:13:24.262Z,16.77
2023-01-23T13:19:22.905Z,17.13
2023-01-23T13:25:09.559Z,16.50
2023-01-23T13:30:35.352Z,17.00
2023-01-23T13:36:29.879Z,17.00
2023-01-23T13:42:20.760Z,16.43
2023-01-23T14:23:50.283Z,17.73
2023-01-23T14:29:26.761Z,17.33
2023-01-23T14:34:48.145Z,15.43
2023-01-23T14:40:26.462Z,15.70
2023-01-23T14:46:27.879Z,16.57
2023-01-23T14:52:36.336Z,15.27
2023-01-23T14:58:00.006Z,17.03
2023-01-23T15:09:41.660Z,15.43
2023-01-23T15:15:03.172Z,15.20
2023-01-23T15:20:30.354Z,16.33
2023-01-23T15:26:34.567Z,17.13
2023-01-23T15:32:48.273Z,15.90
2023-01-23T15:38:33.604Z,15.33
2023-01-23T15:44:05.316Z,15.87
2023-01-23T15:49:28.578Z,16.53
2023-01-23T15:54:54.108Z,16.47
2023-01-23T16:00:20.056Z,16.37
2023-01-23T16:06:19.637Z,15.73
2023-01-23T16:17:46.991Z,16.73
2023-01-23T16:23:46.131Z,16.73
2023-01-23T16:29:28.270Z,15.93
2023-01-23T16:34:50.073Z,15.97
2023-01-23T16:40:27.329Z,17.17
2023-01-23T16:46:01.316Z,18.27
2023-01-23T16:52:00.835Z,17.93
2023-01-23T16:57:58.458Z,17.70
2023-01-23T17:03:29.816Z,16.93
2023-01-23T17:09:05.367Z,17.37
2023-01-23T17:14:31.344Z,15.50
2023-01-23T17:19:52.948Z,17.30
2023-01-23T17:25:23.342Z,16.57
2023-01-23T17:31:07.648Z,16.60
2023-01-23T17:37:06.563Z,16.70
2023-01-23T17:42:47.073Z,17.73
2023-01-23T17:48:43.981Z,15.60
2023-01-23T17:54:17.230Z,17.07
2023-01-23T17:59:38.846Z,17.63
2023-01-23T18:05:21.047Z,16.10
2023-01-23T18:11:26.347Z,17.00
2023-01-23T18:17:36.957Z,16.50
2023-01-23T18:23:16.965Z,16.67
2023-01-23T18:29:15.807Z,15.20
2023-01-23T18:35:04.557Z,15.80
2023-01-23T18:41:21.403Z,16.43
2023-01-23T18:47:16.826Z,16.27
2023-01-23T18:53:23.634Z,15.77
2023-01-23T18:59:12.089Z,16.77
2023-01-23T19:05:03.161Z,15.10
2023-01-23T19:10:32.562Z,15.60
2023-01-23T19:16:21.676Z,15.33
2023-01-23T19:22:05.798Z,16.03
2023-01-23T19:27:49.904Z,15.20
2023-01-23T19:33:37.300Z,15.97
2023-01-23T19:39:08.395Z,15.20
2023-01-23T19:44:30.973Z,15.43
2023-01-23T19:49:52.164Z,14.97
2023-01-23T19:55:28.028Z,15.53
2023-01-23T20:00:49.496Z,14.27
2023-01-23T20:06:34.863Z,15.60
2023-01-23T20:12:02.193Z,14.20
2023-01-23T20:17:49.933Z,15.27
2023-01-23T20:23:14.097Z,15.03
2023-01-23T20:28:45.298Z,13.90
2023-01-23T20:34:11.337Z,15.40
2023-01-23T20:39:32.814Z,16.03
2023-01-23T20:44:54.348Z,15.20
2023-01-23T20:50:16.169Z,14.83
2023-01-23T20:55:37.854Z,16.57
2023-01-23T21:00:59.391Z,13.63
2023-01-23T21:06:36.471Z,13.27
2023-01-23T21:12:15.325Z,15.57
2023-01-23T21:17:54.317Z,16.00
2023-01-23T21:23:35.418Z,14.37
2023-01-23T21:29:08.106Z,15.03
2023-01-23T21:34:31.372Z,13.53
2023-01-23T21:39:52.745Z,13.93
2023-01-23T21:45:14.275Z,14.73
2023-01-23T21:50:35.784Z,14.33
2023-01-23T21:56:22.538Z,13.77
2023-01-23T22:02:07.670Z,13.87
2023-01-23T22:07:32.295Z,13.87
2023-01-23T22:12:59.663Z,12.97
2023-01-23T22:18:21.091Z,13.10
2023-01-23T22:23:51.195Z,12.90
2023-01-23T22:29:15.013Z,12.43
2023-01-23T22:34:36.596Z,13.97
2023-01-23T22:39:58.032Z,14.97
2023-01-23T22:45:20.055Z,14.43
2023-01-23T22:50:41.818Z,12.40
2023-01-23T22:56:27.500Z,13.87
2023-01-23T23:02:08.537Z,14.07
2023-01-23T23:07:44.774Z,13.53
2023-01-23T23:13:19.916Z,12.83
2023-01-23T23:18:52.803Z,12.30
2023-01-23T23:24:14.867Z,13.03
2023-01-23T23:29:36.299Z,12.57
2023-01-23T23:35:01.679Z,12.10
2023-01-23T23:40:23.640Z,11.47
2023-01-23T23:46:26.576Z,11.63
2023-01-23T23:52:06.818Z,8.90
2023-01-23T23:57:51.718Z,12.13
